Time;durP1;ratioP1;P1;durP2;ratioP2;P2;SDS_P1;SDS_P2;PMS_P1;PMS_P2;Temp;Humidity;BMP_temperature;BMP_pressure;BME280_temperature;BME280_humidity;BME280_pressure;Samples;Min_cycle;Max_cycle;Signal;HPM_P1;HPM_P2
2022/01/01 00:01:24;;;;;;;121.75;82.28;;;13.10;99.90;;;;;;5032167;28;20057;-87
2022/01/01 00:03:51;;;;;;;109.18;73.85;;;13.10;99.90;;;;;;5021486;28;20097;-87
2022/01/01 00:06:16;;;;;;;103.05;65.45;;;13.10;99.90;;;;;;5032232;28;20020;-87
2022/01/01 00:08:42;;;;;;;95.97;59.05;;;13.10;99.90;;;;;;5024959;28;20125;-87
2022/01/01 00:11:07;;;;;;;79.03;45.70;;;13.10;99.90;;;;;;5019990;28;20063;-87
2022/01/01 00:13:33;;;;;;;60.05;36.70;;;13.10;99.90;;;;;;5033991;28;20089;-88
2022/01/01 00:15:58;;;;;;;57.97;31.50;;;13.10;99.90;;;;;;5035541;28;20128;-87
2022/01/01 00:18:24;;;;;;;58.05;32.85;;;13.10;99.90;;;;;;5022048;28;20021;-87
2022/01/01 00:20:49;;;;;;;54.63;31.73;;;13.10;99.90;;;;;;5025811;28;20032;-87
2022/01/01 00:23:15;;;;;;;56.75;32.15;;;13.10;99.90;;;;;;5032349;28;20025;-87
2022/01/01 00:25:41;;;;;;;58.40;32.50;;;13.10;99.90;;;;;;5028288;28;20033;-87
2022/01/01 00:28:06;;;;;;;55.13;32.88;;;13.10;99.90;;;;;;5030480;28;20481;-87
2022/01/01 00:30:32;;;;;;;56.33;33.42;;;13.10;99.90;;;;;;5024671;28;20033;-87
2022/01/01 00:32:57;;;;;;;64.90;33.13;;;13.10;99.90;;;;;;5029224;28;20489;-88
2022/01/01 00:35:23;;;;;;;60.55;34.13;;;13.10;99.90;;;;;;5033122;28;20500;-88
2022/01/01 00:37:49;;;;;;;66.90;36.42;;;13.10;99.90;;;;;;5020640;28;20038;-88
2022/01/01 00:40:14;;;;;;;55.70;33.40;;;13.10;99.90;;;;;;5031185;28;20026;-88
2022/01/01 00:42:40;;;;;;;56.20;31.60;;;13.10;99.90;;;;;;5033678;28;20452;-88
2022/01/01 00:45:05;;;;;;;53.72;30.17;;;13.10;99.90;;;;;;5033813;28;20059;-88
2022/01/01 00:47:31;;;;;;;57.13;30.75;;;13.10;99.90;;;;;;5035170;28;20083;-87
2022/01/01 00:49:56;;;;;;;53.63;29.80;;;13.00;99.90;;;;;;5023297;28;20044;-87
2022/01/01 00:52:22;;;;;;;54.17;29.15;;;13.10;99.90;;;;;;5033652;28;20059;-87
2022/01/01 00:54:47;;;;;;;56.17;28.83;;;13.10;99.90;;;;;;5032333;28;20026;-88
2022/01/01 00:57:13;;;;;;;48.00;28.05;;;13.10;99.90;;;;;;5033318;28;20037;-87
2022/01/01 00:59:38;;;;;;;49.22;28.42;;;13.10;99.90;;;;;;5025964;28;20018;-88
2022/01/01 01:02:04;;;;;;;61.70;33.35;;;13.00;99.90;;;;;;5033872;28;20045;-87
2022/01/01 01:04:29;;;;;;;59.95;34.90;;;13.00;99.90;;;;;;5017127;28;20040;-87
2022/01/01 01:06:55;;;;;;;61.03;35.60;;;13.00;99.90;;;;;;5029821;28;20022;-87
2022/01/01 01:09:21;;;;;;;59.95;35.58;;;13.00;99.90;;;;;;5033150;28;20030;-88
2022/01/01 01:11:48;;;;;;;62.85;34.85;;;13.00;99.90;;;;;;5018746;28;20084;-87
2022/01/01 01:14:26;;;;;;;77.35;38.53;;;13.00;99.90;;;;;;5029193;28;20018;-87
2022/01/01 01:16:53;;;;;;;60.13;36.63;;;12.90;99.90;;;;;;5014264;28;20042;-87
2022/01/01 01:19:19;;;;;;;55.33;33.15;;;12.90;99.90;;;;;;5030518;28;20026;-87
2022/01/01 01:21:46;;;;;;;66.20;34.80;;;12.90;99.90;;;;;;5033686;28;20350;-88
2022/01/01 01:24:14;;;;;;;68.43;37.25;;;12.90;99.90;;;;;;5023590;28;20030;-87
2022/01/01 01:26:39;;;;;;;68.00;37.47;;;13.00;99.90;;;;;;5016956;28;20022;-88
2022/01/01 01:29:05;;;;;;;65.70;36.10;;;13.00;99.90;;;;;;5023266;28;20022;-87
2022/01/01 01:31:31;;;;;;;72.22;39.80;;;12.90;99.90;;;;;;5014553;28;20112;-87
2022/01/01 01:33:57;;;;;;;77.70;42.35;;;12.90;99.90;;;;;;5025998;28;20128;-87
2022/01/01 01:36:22;;;;;;;70.25;42.05;;;12.90;99.90;;;;;;5033454;28;20026;-87
2022/01/01 01:38:48;;;;;;;70.25;41.47;;;12.90;99.90;;;;;;5023288;28;20030;-88
2022/01/01 01:41:14;;;;;;;72.63;41.53;;;12.90;99.90;;;;;;5023043;28;20029;-88
2022/01/01 01:43:39;;;;;;;70.03;41.80;;;12.90;99.90;;;;;;5021988;28;20160;-87
2022/01/01 01:46:06;;;;;;;63.97;39.30;;;12.90;99.90;;;;;;5029785;28;20033;-87
2022/01/01 01:48:37;;;;;;;68.93;38.17;;;12.90;99.90;;;;;;5026412;28;20030;-87
2022/01/01 01:51:03;;;;;;;63.13;37.38;;;12.90;99.90;;;;;;5023628;28;20030;-87
2022/01/01 01:53:29;;;;;;;64.78;37.63;;;12.90;99.90;;;;;;5023001;28;20073;-87
2022/01/01 01:55:57;;;;;;;63.63;37.00;;;12.90;99.90;;;;;;5030166;28;20065;-88
2022/01/01 01:58:23;;;;;;;61.90;36.42;;;12.90;99.90;;;;;;5025026;28;20043;-87
2022/01/01 02:03:26;;;;;;;60.53;34.67;;;12.90;99.90;;;;;;5019047;28;20018;-87
2022/01/01 02:05:53;;;;;;;70.25;39.38;;;12.90;99.90;;;;;;5030474;28;20076;-87
2022/01/01 02:08:19;;;;;;;55.83;35.78;;;12.90;99.90;;;;;;5027674;28;20026;-87
2022/01/01 02:10:48;;;;;;;63.33;36.50;;;12.90;99.90;;;;;;5031334;28;20029;-88
2022/01/01 02:13:21;;;;;;;51.20;31.23;;;12.90;99.90;;;;;;5020083;28;20504;-87
2022/01/01 02:16:12;;;;;;;53.22;30.10;;;12.90;99.90;;;;;;5020973;28;20129;-87
2022/01/01 02:18:33;;;;;;;52.22;28.40;;;12.90;99.90;;;;;;5024807;28;20477;-87
2022/01/01 02:20:58;;;;;;;57.00;28.13;;;12.90;99.90;;;;;;5027412;28;20025;-87
2022/01/01 02:23:27;;;;;;;54.58;25.75;;;12.90;99.90;;;;;;5029789;28;20032;-87
2022/01/01 02:25:56;;;;;;;41.92;24.77;;;12.90;99.90;;;;;;5023189;28;20063;-87
2022/01/01 02:28:22;;;;;;;51.88;26.02;;;12.90;99.90;;;;;;5023409;28;20397;-87
2022/01/01 02:30:49;;;;;;;51.08;27.05;;;12.90;99.90;;;;;;5024350;28;20080;-87
2022/01/01 02:33:15;;;;;;;50.85;25.23;;;12.90;99.90;;;;;;5016278;28;20374;-87
2022/01/01 02:35:41;;;;;;;49.30;27.50;;;12.90;99.90;;;;;;5032579;28;20032;-87
2022/01/01 02:38:07;;;;;;;53.50;26.55;;;12.80;99.90;;;;;;5023101;28;20025;-87
2022/01/01 02:40:33;;;;;;;50.42;26.80;;;12.80;99.90;;;;;;5022516;28;20672;-88
2022/01/01 02:42:58;;;;;;;49.05;25.25;;;12.80;99.90;;;;;;5014609;28;20033;-87
2022/01/01 02:45:24;;;;;;;54.03;25.90;;;12.80;99.90;;;;;;5027717;28;20029;-87
2022/01/01 02:47:49;;;;;;;44.55;25.27;;;12.80;99.90;;;;;;5025059;28;20018;-88
2022/01/01 02:50:15;;;;;;;48.08;23.42;;;12.80;99.90;;;;;;5026479;28;20433;-87
2022/01/01 02:52:41;;;;;;;47.97;23.40;;;12.80;99.90;;;;;;5023968;28;20097;-87
2022/01/01 02:55:07;;;;;;;47.85;24.42;;;12.80;99.90;;;;;;5033718;28;20022;-87
2022/01/01 02:57:33;;;;;;;47.00;23.83;;;12.80;99.90;;;;;;5027984;28;20060;-88
2022/01/01 02:59:59;;;;;;;47.25;23.52;;;12.80;99.90;;;;;;5029109;28;20077;-88
2022/01/01 03:02:24;;;;;;;48.95;21.63;;;12.80;99.90;;;;;;5030195;28;20429;-87
2022/01/01 03:04:50;;;;;;;54.08;22.75;;;12.80;99.90;;;;;;5029264;28;20028;-88
2022/01/01 03:07:16;;;;;;;47.67;23.23;;;12.80;99.90;;;;;;5028600;28;20022;-88
2022/01/01 03:09:41;;;;;;;42.67;21.60;;;12.80;99.90;;;;;;5017863;28;20073;-87
2022/01/01 03:12:09;;;;;;;44.75;21.27;;;12.80;99.90;;;;;;5026200;28;20037;-88
2022/01/01 03:14:36;;;;;;;46.38;22.52;;;12.80;99.90;;;;;;5029234;28;20079;-87
2022/01/01 03:17:02;;;;;;;45.25;21.77;;;12.80;99.90;;;;;;5030561;28;20041;-88
2022/01/01 03:19:28;;;;;;;44.75;19.88;;;12.80;99.90;;;;;;5031702;28;20053;-88
2022/01/01 03:21:53;;;;;;;42.10;18.27;;;12.80;99.90;;;;;;5032094;28;20075;-88
2022/01/01 03:24:19;;;;;;;42.08;19.15;;;12.90;99.90;;;;;;5029286;28;20053;-87
2022/01/01 03:26:45;;;;;;;43.83;18.75;;;12.80;99.90;;;;;;5030036;28;20572;-87
2022/01/01 03:29:10;;;;;;;43.03;17.88;;;12.80;99.90;;;;;;5031338;28;20032;-88
2022/01/01 03:31:36;;;;;;;38.28;15.95;;;12.80;99.90;;;;;;5031111;28;20037;-87
2022/01/01 03:34:02;;;;;;;35.80;15.40;;;12.90;99.90;;;;;;5032443;28;20025;-87
2022/01/01 03:36:28;;;;;;;36.85;15.93;;;12.90;99.90;;;;;;5026823;28;20038;-88
2022/01/01 03:38:55;;;;;;;33.78;14.88;;;12.80;99.90;;;;;;5030981;28;20075;-87
2022/01/01 03:41:20;;;;;;;40.55;13.88;;;12.90;99.90;;;;;;5032038;28;20029;-87
2022/01/01 03:43:46;;;;;;;33.88;13.50;;;12.90;99.90;;;;;;5031131;28;20029;-87
2022/01/01 03:46:12;;;;;;;30.30;12.63;;;12.90;99.90;;;;;;5023974;28;20034;-87
2022/01/01 03:48:38;;;;;;;29.80;12.93;;;12.90;99.90;;;;;;5038425;28;20161;-88
2022/01/01 03:51:03;;;;;;;34.65;12.27;;;12.90;99.90;;;;;;5021844;28;20121;-88
2022/01/01 03:53:29;;;;;;;30.85;12.18;;;12.90;99.90;;;;;;5023894;28;20022;-87
2022/01/01 03:55:54;;;;;;;34.38;12.57;;;12.90;99.90;;;;;;5024942;28;20039;-88
2022/01/01 03:58:20;;;;;;;26.58;11.45;;;12.90;99.90;;;;;;5033097;28;20022;-87
2022/01/01 04:00:46;;;;;;;32.85;12.13;;;12.90;99.90;;;;;;5019745;28;20052;-87
2022/01/01 04:03:14;;;;;;;30.33;11.80;;;12.90;99.90;;;;;;5019345;28;20029;-87
2022/01/01 04:05:40;;;;;;;30.05;11.90;;;12.90;99.90;;;;;;5032816;28;20079;-87
2022/01/01 04:08:08;;;;;;;27.90;11.43;;;12.90;99.90;;;;;;5034840;28;20025;-88
2022/01/01 04:10:34;;;;;;;25.30;11.18;;;12.90;99.90;;;;;;5034748;28;20056;-88
2022/01/01 04:13:01;;;;;;;29.08;11.25;;;12.90;99.90;;;;;;5029995;28;20109;-88
2022/01/01 04:15:28;;;;;;;31.98;12.35;;;12.90;99.90;;;;;;5029248;28;20041;-88
2022/01/01 04:18:00;;;;;;;24.00;10.85;;;12.90;99.90;;;;;;5034654;28;20033;-87
2022/01/01 04:20:26;;;;;;;29.15;11.27;;;12.90;99.90;;;;;;5026838;28;20109;-87
2022/01/01 04:22:53;;;;;;;22.95;9.95;;;12.90;99.90;;;;;;5027792;28;20060;-88
2022/01/01 04:25:20;;;;;;;26.35;10.05;;;12.90;99.90;;;;;;5033820;28;20032;-87
2022/01/01 04:27:46;;;;;;;25.92;10.10;;;12.90;99.90;;;;;;5034647;28;20033;-87
2022/01/01 04:30:12;;;;;;;25.25;10.40;;;12.90;99.90;;;;;;5033972;28;20124;-88
2022/01/01 04:32:37;;;;;;;24.23;10.27;;;12.90;99.90;;;;;;5033533;28;20506;-87
2022/01/01 04:35:03;;;;;;;20.40;9.52;;;12.90;99.90;;;;;;5026332;28;20025;-88
2022/01/01 04:37:29;;;;;;;24.83;9.65;;;12.90;99.90;;;;;;5016669;28;20493;-87
2022/01/01 04:39:59;;;;;;;27.35;10.65;;;12.90;99.90;;;;;;5027446;28;20034;-88
2022/01/01 04:42:25;;;;;;;24.98;9.90;;;12.90;99.90;;;;;;5034884;28;20112;-87
2022/01/01 04:44:50;;;;;;;28.58;10.55;;;12.90;99.90;;;;;;5032369;28;20034;-88
2022/01/01 04:47:16;;;;;;;25.77;10.20;;;12.90;99.90;;;;;;5023997;28;20030;-87
2022/01/01 04:49:41;;;;;;;20.45;9.40;;;12.90;99.90;;;;;;5034136;28;20489;-88
2022/01/01 04:52:07;;;;;;;25.10;10.35;;;12.90;99.90;;;;;;5034975;28;20021;-88
2022/01/01 04:54:34;;;;;;;24.48;9.82;;;12.90;99.90;;;;;;5022822;28;20367;-87
2022/01/01 04:56:59;;;;;;;23.00;10.15;;;12.90;99.90;;;;;;5026018;28;20033;-87
2022/01/01 04:59:25;;;;;;;22.13;10.18;;;12.90;99.90;;;;;;5026658;28;20443;-88
2022/01/01 05:01:50;;;;;;;21.50;10.18;;;12.90;99.90;;;;;;5016159;28;20046;-87
2022/01/01 05:04:16;;;;;;;19.80;9.43;;;12.90;99.90;;;;;;5021944;28;20072;-88
2022/01/01 05:06:41;;;;;;;22.83;9.68;;;12.90;99.90;;;;;;5031591;28;20033;-88
2022/01/01 05:09:08;;;;;;;23.10;9.70;;;12.80;99.90;;;;;;5018166;28;20026;-87
2022/01/01 05:11:34;;;;;;;21.35;8.90;;;12.80;99.90;;;;;;5027238;28;20082;-88
2022/01/01 05:13:59;;;;;;;24.08;10.00;;;12.70;99.90;;;;;;5033767;28;20026;-87
2022/01/01 05:16:25;;;;;;;24.67;10.50;;;12.60;99.90;;;;;;5028131;28;20057;-87
2022/01/01 05:18:50;;;;;;;21.40;9.80;;;12.50;99.90;;;;;;5027471;28;20094;-87
2022/01/01 05:21:16;;;;;;;25.42;8.88;;;12.50;99.90;;;;;;5033620;28;20093;-88
2022/01/01 05:23:41;;;;;;;20.65;9.32;;;12.40;99.90;;;;;;5026720;28;20013;-87
2022/01/01 05:26:07;;;;;;;25.45;10.05;;;12.40;99.90;;;;;;5029482;28;20029;-87
2022/01/01 05:28:32;;;;;;;21.17;9.80;;;12.40;99.90;;;;;;5032706;28;20032;-88
2022/01/01 05:30:58;;;;;;;25.02;9.43;;;12.40;99.90;;;;;;5032970;28;20034;-88
2022/01/01 05:33:23;;;;;;;26.38;9.52;;;12.40;99.90;;;;;;5033711;28;20021;-87
2022/01/01 05:35:49;;;;;;;22.75;9.20;;;12.50;99.90;;;;;;5033024;28;20129;-87
2022/01/01 05:38:14;;;;;;;22.90;9.25;;;12.50;99.90;;;;;;5030813;28;20028;-87
2022/01/01 05:40:40;;;;;;;17.20;9.38;;;12.60;99.90;;;;;;5029274;28;20028;-87
2022/01/01 05:43:12;;;;;;;22.00;9.77;;;12.60;99.90;;;;;;5033101;28;20029;-87
2022/01/01 05:45:38;;;;;;;19.75;8.85;;;12.60;99.90;;;;;;5029283;28;20079;-87
2022/01/01 05:48:04;;;;;;;24.77;10.18;;;12.70;99.90;;;;;;5030001;28;20576;-86
2022/01/01 05:50:29;;;;;;;21.98;8.27;;;12.70;99.90;;;;;;5033003;28;20025;-87
2022/01/01 05:52:55;;;;;;;15.45;7.85;;;12.80;99.90;;;;;;5033025;28;20063;-87
2022/01/01 05:55:20;;;;;;;20.13;8.05;;;12.70;99.90;;;;;;5032189;28;20025;-86
2022/01/01 05:57:45;;;;;;;18.65;7.57;;;12.80;99.90;;;;;;5029367;28;20029;-85
2022/01/01 06:00:13;;;;;;;14.98;6.57;;;12.80;99.90;;;;;;5032129;28;20061;-85
2022/01/01 06:02:42;;;;;;;16.27;7.53;;;12.80;99.90;;;;;;5032080;28;20034;-86
2022/01/01 06:05:08;;;;;;;17.30;7.05;;;12.80;99.90;;;;;;5024997;28;20520;-86
2022/01/01 06:07:34;;;;;;;22.45;7.10;;;12.80;99.90;;;;;;5030182;28;20065;-86
2022/01/01 06:10:00;;;;;;;16.70;6.25;;;12.90;99.90;;;;;;5026464;28;20045;-86
2022/01/01 06:12:26;;;;;;;16.02;6.55;;;12.90;99.90;;;;;;5026763;28;20032;-85
2022/01/01 06:14:52;;;;;;;15.43;6.72;;;12.90;99.90;;;;;;5027603;28;20056;-86
2022/01/01 06:17:18;;;;;;;14.35;5.70;;;12.90;99.90;;;;;;5024945;28;20037;-86
2022/01/01 06:19:43;;;;;;;16.02;6.07;;;12.90;99.90;;;;;;5030131;28;20413;-86
2022/01/01 06:22:09;;;;;;;12.02;6.05;;;12.90;99.90;;;;;;5028866;28;20037;-85
2022/01/01 06:24:35;;;;;;;15.13;5.50;;;12.90;99.90;;;;;;5028687;28;20053;-86
2022/01/01 06:27:00;;;;;;;13.80;5.38;;;12.90;99.90;;;;;;5020881;28;20025;-86
2022/01/01 06:29:25;;;;;;;15.68;6.10;;;12.90;99.90;;;;;;5026442;28;20475;-86
2022/01/01 06:31:51;;;;;;;17.65;6.55;;;12.90;99.90;;;;;;5027578;28;20033;-86
2022/01/01 06:34:16;;;;;;;15.93;5.65;;;12.90;99.90;;;;;;5026624;28;20021;-86
2022/01/01 06:36:42;;;;;;;14.18;5.93;;;12.90;99.90;;;;;;5029378;28;20045;-86
2022/01/01 06:39:08;;;;;;;16.08;6.45;;;12.90;99.90;;;;;;5026828;28;20065;-88
2022/01/01 06:41:33;;;;;;;21.55;6.15;;;12.80;99.90;;;;;;5029775;28;20052;-87
2022/01/01 06:43:59;;;;;;;16.67;6.60;;;12.70;99.90;;;;;;5014630;28;20025;-84
2022/01/01 06:46:24;;;;;;;17.10;5.57;;;12.60;99.90;;;;;;5044470;28;20459;-86
2022/01/01 06:48:50;;;;;;;18.60;5.57;;;12.60;99.90;;;;;;5027680;28;20021;-86
2022/01/01 06:51:16;;;;;;;16.55;5.88;;;12.50;99.90;;;;;;5028462;28;20041;-86
2022/01/01 06:53:41;;;;;;;16.55;6.07;;;12.40;99.90;;;;;;5032896;28;20032;-86
2022/01/01 06:56:07;;;;;;;14.40;5.78;;;12.40;99.90;;;;;;5032579;28;20033;-86
2022/01/01 06:58:34;;;;;;;15.40;5.68;;;12.30;99.90;;;;;;5031374;28;20060;-86
2022/01/01 07:01:00;;;;;;;14.65;5.05;;;12.30;99.90;;;;;;5032304;28;20051;-86
2022/01/01 07:03:25;;;;;;;15.20;5.18;;;12.10;99.90;;;;;;5031922;28;20033;-85
2022/01/01 07:05:51;;;;;;;8.60;4.38;;;12.10;99.90;;;;;;5024864;28;20026;-85
2022/01/01 07:08:17;;;;;;;17.25;5.45;;;12.10;99.90;;;;;;5028590;28;20026;-86
2022/01/01 07:10:44;;;;;;;20.85;6.15;;;12.10;99.90;;;;;;5029527;28;20037;-86
2022/01/01 07:13:10;;;;;;;14.20;4.57;;;12.00;99.90;;;;;;5020844;28;20018;-86
2022/01/01 07:15:36;;;;;;;11.15;3.80;;;12.10;99.90;;;;;;5036662;28;20068;-86
2022/01/01 07:18:02;;;;;;;11.95;4.80;;;12.00;99.90;;;;;;5040854;28;20071;-86
2022/01/01 07:20:27;;;;;;;12.52;4.00;;;12.00;99.90;;;;;;5029446;28;20029;-87
2022/01/01 07:22:53;;;;;;;13.55;4.88;;;12.00;99.90;;;;;;5032482;28;20087;-87
2022/01/01 07:25:19;;;;;;;13.43;4.68;;;12.00;99.90;;;;;;5031043;28;20026;-86
2022/01/01 07:27:45;;;;;;;23.77;5.28;;;12.00;99.90;;;;;;5032027;28;20025;-86
2022/01/01 07:30:11;;;;;;;17.60;5.38;;;12.10;99.90;;;;;;5024380;28;20116;-86
2022/01/01 07:32:41;;;;;;;14.70;5.30;;;12.00;99.90;;;;;;5034369;28;20112;-86
2022/01/01 07:35:07;;;;;;;16.10;4.50;;;12.00;99.90;;;;;;5033829;28;20502;-88
2022/01/01 07:37:33;;;;;;;15.43;4.75;;;12.00;99.90;;;;;;5025860;28;20431;-87
2022/01/01 07:39:58;;;;;;;13.40;4.45;;;12.00;99.90;;;;;;5023192;28;20072;-87
2022/01/01 07:42:24;;;;;;;12.80;4.85;;;12.00;99.90;;;;;;5031539;28;20053;-88
2022/01/01 07:44:49;;;;;;;11.88;4.28;;;12.00;99.90;;;;;;5021998;28;20018;-86
2022/01/01 07:47:15;;;;;;;14.82;5.68;;;12.00;99.90;;;;;;5027549;28;20053;-86
2022/01/01 07:49:42;;;;;;;17.20;4.93;;;12.00;99.90;;;;;;5024360;28;20025;-87
2022/01/01 07:52:08;;;;;;;9.75;3.97;;;12.10;99.90;;;;;;5029071;28;20021;-88
2022/01/01 07:54:34;;;;;;;17.17;4.47;;;12.10;99.90;;;;;;5032943;28;20017;-88
2022/01/01 07:56:59;;;;;;;17.38;4.90;;;12.20;99.90;;;;;;5027722;28;21821;-87
2022/01/01 07:59:25;;;;;;;16.92;4.00;;;12.20;99.90;;;;;;5034041;28;20017;-88
2022/01/01 08:01:50;;;;;;;17.20;4.47;;;12.20;99.90;;;;;;5029581;28;20087;-87
2022/01/01 08:04:16;;;;;;;8.38;3.97;;;12.30;99.90;;;;;;5025960;28;20033;-87
2022/01/01 08:06:41;;;;;;;10.98;3.60;;;12.30;99.90;;;;;;5026964;28;20048;-86
2022/01/01 08:09:07;;;;;;;10.98;3.75;;;12.30;99.90;;;;;;5032675;28;20033;-87
2022/01/01 08:11:33;;;;;;;11.75;3.60;;;12.40;99.90;;;;;;5033555;28;20040;-87
2022/01/01 08:13:58;;;;;;;13.10;4.18;;;12.40;99.90;;;;;;5032094;28;20371;-87
2022/01/01 08:16:24;;;;;;;12.95;3.65;;;12.50;99.90;;;;;;5032619;28;20056;-87
2022/01/01 08:18:49;;;;;;;11.70;4.13;;;12.50;99.90;;;;;;5027515;28;20026;-87
2022/01/01 08:21:15;;;;;;;11.30;3.55;;;12.60;99.90;;;;;;5031774;28;20559;-87
2022/01/01 08:23:40;;;;;;;15.18;4.22;;;12.60;99.90;;;;;;5027338;28;20025;-85
2022/01/01 08:26:06;;;;;;;12.05;4.30;;;12.60;99.90;;;;;;5034990;28;20041;-88
2022/01/01 08:28:32;;;;;;;13.30;3.67;;;12.60;99.90;;;;;;5034529;28;20029;-88
2022/01/01 08:30:57;;;;;;;15.88;3.72;;;12.70;99.90;;;;;;5035266;28;20052;-88
2022/01/01 08:33:23;;;;;;;10.25;2.97;;;12.70;99.90;;;;;;5034448;28;20102;-87
2022/01/01 08:35:49;;;;;;;12.68;3.65;;;12.80;99.90;;;;;;5016628;28;20105;-85
2022/01/01 08:38:15;;;;;;;10.48;3.30;;;12.80;99.90;;;;;;5029774;28;20493;-87
2022/01/01 08:40:40;;;;;;;11.15;3.58;;;12.80;99.90;;;;;;5028093;28;20030;-88
2022/01/01 08:43:06;;;;;;;11.38;3.55;;;12.90;99.90;;;;;;5014708;28;20022;-86
2022/01/01 08:45:33;;;;;;;9.20;3.17;;;12.90;99.90;;;;;;5023190;28;20040;-88
2022/01/01 08:47:58;;;;;;;12.13;3.25;;;12.90;99.90;;;;;;5034928;28;20055;-85
2022/01/01 08:50:24;;;;;;;11.52;3.08;;;12.90;99.90;;;;;;5033981;28;20034;-87
2022/01/01 08:52:50;;;;;;;10.27;3.40;;;13.00;99.90;;;;;;5015183;28;20037;-86
2022/01/01 08:55:15;;;;;;;9.65;3.03;;;13.00;99.90;;;;;;5027586;28;20404;-86
2022/01/01 08:57:41;;;;;;;13.38;2.80;;;13.00;99.90;;;;;;5030205;28;20045;-86
2022/01/01 09:00:10;;;;;;;11.52;3.42;;;13.10;99.90;;;;;;5034218;28;20095;-85
2022/01/01 09:02:36;;;;;;;11.20;3.17;;;13.10;99.90;;;;;;5033661;28;20462;-87
2022/01/01 09:05:02;;;;;;;7.72;2.88;;;13.10;99.90;;;;;;5023343;28;20056;-87
2022/01/01 09:07:29;;;;;;;8.70;2.70;;;13.20;99.90;;;;;;5027251;28;20068;-86
2022/01/01 09:09:59;;;;;;;12.85;3.33;;;13.20;99.90;;;;;;5034641;28;20363;-86
2022/01/01 09:12:26;;;;;;;11.00;2.67;;;13.20;99.90;;;;;;5032229;28;20032;-86
2022/01/01 09:14:52;;;;;;;8.63;2.67;;;13.20;99.90;;;;;;5024151;28;20033;-87
2022/01/01 09:17:18;;;;;;;10.65;3.03;;;13.30;99.90;;;;;;5031248;28;20049;-87
2022/01/01 09:19:44;;;;;;;9.00;2.67;;;13.20;99.90;;;;;;5030850;28;20026;-88
2022/01/01 09:22:09;;;;;;;9.93;3.58;;;13.20;99.90;;;;;;5034361;28;20029;-89
2022/01/01 09:24:35;;;;;;;12.73;3.90;;;13.20;99.90;;;;;;5036643;28;20048;-88
2022/01/01 09:27:01;;;;;;;8.35;2.65;;;13.20;99.90;;;;;;5031919;28;20037;-87
2022/01/01 09:29:27;;;;;;;10.77;3.45;;;13.20;99.90;;;;;;5032283;28;20429;-88
2022/01/01 09:31:52;;;;;;;12.15;3.50;;;13.20;99.90;;;;;;5033559;28;20029;-86
2022/01/01 09:34:18;;;;;;;12.07;3.63;;;13.20;99.90;;;;;;5033049;28;20005;-86
2022/01/01 09:36:49;;;;;;;13.10;3.58;;;13.20;99.90;;;;;;5018215;28;20029;-86
2022/01/01 09:39:16;;;;;;;12.57;3.47;;;13.20;99.90;;;;;;5032690;28;20033;-89
2022/01/01 09:41:43;;;;;;;12.73;3.80;;;13.20;99.90;;;;;;5019871;28;20037;-88
2022/01/01 09:44:17;;;;;;;8.52;3.50;;;13.20;99.90;;;;;;5023115;28;20029;-87
2022/01/01 09:46:45;;;;;;;12.82;4.40;;;13.20;99.90;;;;;;5033219;28;20068;-87
2022/01/01 09:49:13;;;;;;;11.65;3.63;;;13.20;99.90;;;;;;5025800;28;20032;-90
2022/01/01 09:51:41;;;;;;;9.38;3.67;;;13.20;99.90;;;;;;5027414;28;20075;-87
2022/01/01 09:54:07;;;;;;;8.77;3.30;;;13.30;99.90;;;;;;5015455;28;20482;-88
2022/01/01 09:56:33;;;;;;;10.15;3.80;;;13.20;99.90;;;;;;5030667;28;20498;-87
2022/01/01 09:58:58;;;;;;;8.40;3.53;;;13.30;99.90;;;;;;5033178;28;20041;-86
2022/01/01 10:01:24;;;;;;;10.07;3.83;;;13.20;99.90;;;;;;5032032;28;20042;-88
2022/01/01 10:03:51;;;;;;;10.07;3.70;;;13.30;99.90;;;;;;5025786;28;20609;-87
2022/01/01 10:06:19;;;;;;;11.20;4.68;;;13.30;99.90;;;;;;5023535;28;20076;-86
2022/01/01 10:08:55;;;;;;;6.70;3.75;;;13.20;99.90;;;;;;5028485;28;20021;-87
2022/01/01 10:11:24;;;;;;;8.15;4.03;;;13.20;99.90;;;;;;5028905;28;20032;-88
2022/01/01 10:13:50;;;;;;;11.35;4.80;;;13.20;99.90;;;;;;5029349;28;20456;-86
2022/01/01 10:16:16;;;;;;;12.05;5.25;;;13.20;99.90;;;;;;5033200;28;20125;-86
2022/01/01 10:19:02;;;;;;;14.02;4.88;;;13.30;99.90;;;;;;5027541;28;20850;-86
2022/01/01 10:21:28;;;;;;;11.27;4.20;;;13.30;99.90;;;;;;5032820;28;20029;-86
2022/01/01 10:23:57;;;;;;;10.23;4.38;;;13.30;99.90;;;;;;5029338;28;20021;-85
2022/01/01 10:29:15;;;;;;;10.90;4.88;;;13.30;99.90;;;;;;5030524;28;20044;-88
2022/01/01 10:32:01;;;;;;;11.38;4.88;;;13.30;99.90;;;;;;5030643;28;20117;-87
2022/01/01 10:34:35;;;;;;;10.40;4.30;;;13.40;99.90;;;;;;5032823;28;20128;-87
2022/01/01 10:37:05;;;;;;;13.38;5.45;;;13.40;99.90;;;;;;5030547;28;20124;-87
2022/01/01 10:39:31;;;;;;;10.82;4.68;;;13.40;99.90;;;;;;5028192;28;20030;-88
2022/01/01 10:41:59;;;;;;;10.50;4.75;;;13.50;99.90;;;;;;5031860;28;20028;-88
2022/01/01 10:44:39;;;;;;;10.63;4.60;;;13.50;99.90;;;;;;5031832;28;20367;-86
2022/01/01 10:47:12;;;;;;;12.35;4.55;;;13.60;99.90;;;;;;5029579;28;20021;-87
2022/01/01 10:52:12;;;;;;;10.63;4.97;;;13.60;99.90;;;;;;5029787;28;20174;-88
2022/01/01 10:54:38;;;;;;;9.38;4.40;;;13.60;99.90;;;;;;5027835;28;20176;-88
2022/01/01 10:57:08;;;;;;;9.10;5.05;;;13.70;99.90;;;;;;5036143;28;20033;-88
2022/01/01 10:59:38;;;;;;;11.93;4.88;;;13.70;99.90;;;;;;5031739;28;20029;-87
2022/01/01 11:02:06;;;;;;;10.13;4.90;;;13.70;99.90;;;;;;5023761;28;20042;-88
2022/01/01 11:04:33;;;;;;;9.32;4.63;;;13.70;99.90;;;;;;5032022;28;20030;-88
2022/01/01 11:06:59;;;;;;;9.43;4.63;;;13.80;99.90;;;;;;5026879;28;20494;-88
2022/01/01 11:09:26;;;;;;;8.65;4.70;;;13.80;99.90;;;;;;5032401;28;20132;-88
2022/01/01 11:11:57;;;;;;;8.68;4.05;;;13.80;99.90;;;;;;5031287;28;20029;-89
2022/01/01 11:14:23;;;;;;;9.20;4.13;;;13.90;99.90;;;;;;5030145;28;20433;-88
2022/01/01 11:16:49;;;;;;;9.95;4.47;;;13.90;99.90;;;;;;5025863;28;20036;-87
2022/01/01 11:19:15;;;;;;;9.85;4.82;;;13.90;99.90;;;;;;5028116;28;20678;-89
2022/01/01 11:21:41;;;;;;;7.95;3.90;;;13.90;99.90;;;;;;5023552;28;20022;-89
2022/01/01 11:24:07;;;;;;;10.35;4.03;;;14.00;99.90;;;;;;5020009;28;20482;-88
2022/01/01 11:26:33;;;;;;;9.93;4.25;;;14.00;99.90;;;;;;5038837;28;20034;-87
2022/01/01 11:28:59;;;;;;;10.40;4.38;;;14.10;99.90;;;;;;5023240;28;20514;-89
2022/01/01 11:31:25;;;;;;;9.10;4.35;;;14.20;99.90;;;;;;5027665;28;20036;-90
2022/01/01 11:34:00;;;;;;;7.45;4.00;;;14.20;99.90;;;;;;5029578;28;20417;-88
2022/01/01 11:36:29;;;;;;;11.20;4.00;;;14.30;99.90;;;;;;5030748;28;20068;-89
2022/01/01 11:38:54;;;;;;;6.57;4.00;;;14.30;99.90;;;;;;5028856;28;20121;-89
2022/01/01 11:41:21;;;;;;;9.23;3.65;;;14.30;99.90;;;;;;5029868;28;20104;-89
2022/01/01 11:43:53;;;;;;;8.45;3.88;;;14.40;99.90;;;;;;5023817;28;20101;-89
2022/01/01 11:46:21;;;;;;;6.80;3.72;;;14.50;99.90;;;;;;5018812;28;20088;-87
2022/01/01 11:48:55;;;;;;;6.93;3.55;;;14.50;99.90;;;;;;5031132;28;20076;-88
2022/01/01 11:51:35;;;;;;;8.55;3.58;;;14.50;99.90;;;;;;5021081;28;20381;-88
2022/01/01 11:54:09;;;;;;;7.85;3.40;;;14.40;99.90;;;;;;5031877;28;20025;-86
2022/01/01 11:56:47;;;;;;;7.80;2.95;;;14.40;99.90;;;;;;5031518;28;20039;-87
2022/01/01 11:59:38;;;;;;;6.57;3.05;;;14.40;99.90;;;;;;5028152;28;20025;-88
2022/01/01 12:02:24;;;;;;;6.10;3.10;;;14.50;99.90;;;;;;5021364;28;20052;-87
2022/01/01 12:05:11;;;;;;;7.43;3.42;;;14.40;99.90;;;;;;5028068;28;20397;-87
2022/01/01 12:07:45;;;;;;;11.27;3.53;;;14.40;99.90;;;;;;5012290;28;20034;-87
2022/01/01 12:10:14;;;;;;;10.25;3.58;;;14.40;99.90;;;;;;5029905;28;20118;-86
2022/01/01 12:12:54;;;;;;;9.57;3.45;;;14.40;99.90;;;;;;5031620;28;20017;-87
2022/01/01 12:15:48;;;;;;;9.93;3.08;;;14.40;99.90;;;;;;5031982;28;20040;-87
2022/01/01 12:18:18;;;;;;;8.02;3.13;;;14.40;99.90;;;;;;5032256;28;20064;-87
2022/01/01 12:21:02;;;;;;;7.18;3.80;;;14.30;99.90;;;;;;5034348;28;20025;-86
2022/01/01 12:23:29;;;;;;;7.43;3.22;;;14.30;99.90;;;;;;5020378;28;20030;-87
2022/01/01 12:25:56;;;;;;;9.43;3.33;;;14.30;99.90;;;;;;5035064;28;20032;-87
2022/01/01 12:28:28;;;;;;;10.80;3.97;;;14.30;99.90;;;;;;5034137;28;20036;-85
2022/01/01 12:31:05;;;;;;;6.05;2.60;;;14.30;99.90;;;;;;5039616;28;20063;-88
2022/01/01 12:33:48;;;;;;;7.72;2.97;;;14.40;99.90;;;;;;5033089;28;20033;-87
2022/01/01 12:36:22;;;;;;;6.45;2.70;;;14.40;99.90;;;;;;5023914;28;20045;-87
2022/01/01 12:39:00;;;;;;;9.45;3.20;;;14.30;99.90;;;;;;5015604;28;20114;-87
2022/01/01 12:41:33;;;;;;;6.22;2.97;;;14.30;99.90;;;;;;5033408;28;20033;-87
2022/01/01 12:44:01;;;;;;;6.47;2.53;;;14.40;99.90;;;;;;5031078;28;20021;-87